Map

Track Data

SID SEASON NUMBER BASIN SUBBASIN NAME ISO_TIME NATURE LAT LON WMO_WIND WMO_PRES WMO_AGENCY TRACK_TYPE DIST2LAND LANDFALL IFLAG USA_AGENCY USA_ATCF_ID USA_LAT USA_LON USA_RECORD USA_STATUS USA_WIND USA_PRES USA_SSHS USA_R34_NE USA_R34_SE USA_R34_SW USA_R34_NW USA_R50_NE USA_R50_SE USA_R50_SW USA_R50_NW USA_R64_NE USA_R64_SE USA_R64_SW USA_R64_NW USA_POCI USA_ROCI USA_RMW USA_EYE TOKYO_LAT TOKYO_LON TOKYO_GRADE TOKYO_WIND TOKYO_PRES TOKYO_R50_DIR TOKYO_R50_LONG TOKYO_R50_SHORT TOKYO_R30_DIR TOKYO_R30_LONG TOKYO_R30_SHORT TOKYO_LAND CMA_LAT CMA_LON CMA_CAT CMA_WIND CMA_PRES HKO_LAT HKO_LON HKO_CAT HKO_WIND HKO_PRES NEWDELHI_LAT NEWDELHI_LON NEWDELHI_GRADE NEWDELHI_WIND NEWDELHI_PRES NEWDELHI_CI NEWDELHI_DP NEWDELHI_POCI REUNION_LAT REUNION_LON REUNION_TYPE REUNION_WIND REUNION_PRES REUNION_TNUM REUNION_CI REUNION_RMW REUNION_R34_NE REUNION_R34_SE REUNION_R34_SW REUNION_R34_NW REUNION_R50_NE REUNION_R50_SE REUNION_R50_SW REUNION_R50_NW REUNION_R64_NE REUNION_R64_SE REUNION_R64_SW REUNION_R64_NW BOM_LAT BOM_LON BOM_TYPE BOM_WIND BOM_PRES BOM_TNUM BOM_CI BOM_RMW BOM_R34_NE BOM_R34_SE BOM_R34_SW BOM_R34_NW BOM_R50_NE BOM_R50_SE BOM_R50_SW BOM_R50_NW BOM_R64_NE BOM_R64_SE BOM_R64_SW BOM_R64_NW BOM_ROCI BOM_POCI BOM_EYE BOM_POS_METHOD BOM_PRES_METHOD NADI_LAT NADI_LON NADI_CAT NADI_WIND NADI_PRES WELLINGTON_LAT WELLINGTON_LON WELLINGTON_WIND WELLINGTON_PRES DS824_LAT DS824_LON DS824_STAGE DS824_WIND DS824_PRES TD9636_LAT TD9636_LON TD9636_STAGE TD9636_WIND TD9636_PRES TD9635_LAT TD9635_LON TD9635_WIND TD9635_PRES TD9635_ROCI NEUMANN_LAT NEUMANN_LON NEUMANN_CLASS NEUMANN_WIND NEUMANN_PRES MLC_LAT MLC_LON MLC_CLASS MLC_WIND MLC_PRES USA_GUST BOM_GUST BOM_GUST_PER REUNION_GUST REUNION_GUST_PER USA_SEAHGT USA_SEARAD_NE USA_SEARAD_SE USA_SEARAD_SW USA_SEARAD_NW STORM_SPEED STORM_DIR
1913197N19087 1913 30 NI BB NOT_NAMED 1913-07-16 00:00:00 TS 19.3000 87.2000 main 114 99 _________O____ -1 19.3000 87.2000 TC 34 3 310
1913197N19087 1913 30 NI BB NOT_NAMED 1913-07-16 03:00:00 TS 19.3983 87.0750 main 99 76 _________PO___ -1 19.4475 87.0125 TC 33 19.3000 87.2000 2 4 308
1913197N19087 1913 30 NI BB NOT_NAMED 1913-07-16 06:00:00 TS 19.5484 86.8597 main 76 39 _________OP___ -1 19.6000 86.8000 TC 32 19.4709 86.9492 2 5 305
1913197N19087 1913 30 NI BB NOT_NAMED 1913-07-16 09:00:00 TS 19.7043 86.6179 main 39 22 _________PP___ -1 19.7575 86.5500 TC 31 19.6332 86.7085 2 5 304
1913197N19087 1913 30 NI BB NOT_NAMED 1913-07-16 12:00:00 TS 19.8395 86.3943 main 22 10 _________OP___ -1 19.9000 86.3000 TC 30 19.7790 86.4885 2 5 302
1913197N19087 1913 30 NI BB NOT_NAMED 1913-07-16 15:00:00 TS 19.9537 86.1962 main 0 0 _________PO___ -1 20.0075 86.0924 TC 30 19.9000 86.3000 1 4 301
1913197N19087 1913 30 NI BB NOT_NAMED 1913-07-16 18:00:00 TS 20.0467 86.0224 main 0 0 _________OP___ -1 20.1000 85.9000 TC 30 19.9933 86.1448 1 4 299
1913197N19087 1913 30 NI BB NOT_NAMED 1913-07-16 21:00:00 TS 20.1268 85.8667 main 0 0 _________PP___ -1 20.1772 85.7447 TC 30 20.0763 85.9887 1 4 298
1913197N19087 1913 30 NI BB NOT_NAMED 1913-07-17 00:00:00 TS 20.2356 85.6441 main 0 0 _________OP___ -1 20.3000 85.5000 TC 30 20.1712 85.7883 1 6 298
1913197N19087 1913 30 NI BB NOT_NAMED 1913-07-17 03:00:00 TS 20.4175 85.2764 main 0 0 _________PO___ -1 20.5351 85.0527 TC 30 20.3000 85.5000 1 9 297
1913197N19087 1913 30 NI BB NOT_NAMED 1913-07-17 06:00:00 TS 20.6509 84.7866 main 0 0 _________OP___ -1 20.8000 84.5000 TC 30 20.5017 85.0732 1 11 296
1913197N19087 1913 30 NI BB NOT_NAMED 1913-07-17 09:00:00 TS 20.8753 84.2567 main 0 0 _________PP___ -1 21.0149 83.9574 TC 30 20.7356 84.5560 1 11 293
1913197N19087 1913 30 NI BB NOT_NAMED 1913-07-17 12:00:00 TS 21.0883 83.6928 main 0 0 _________OP___ -1 21.2000 83.4000 TC 30 20.9766 83.9856 1 11 291
1913197N19087 1913 30 NI BB NOT_NAMED 1913-07-17 15:00:00 TS 21.2787 83.1249 main 0 0 _________PO___ -1 21.3573 82.8498 TC 30 21.2000 83.4000 1 11 288
1913197N19087 1913 30 NI BB NOT_NAMED 1913-07-17 18:00:00 TS 21.4222 82.6179 main 0 0 _________OP___ -1 21.5000 82.3000 TC 30 21.3444 82.9358 1 10 286
1913197N19087 1913 30 NI BB NOT_NAMED 1913-07-17 21:00:00 TS 21.5497 82.1388 main 0 0 _________PP___ -1 21.6263 81.8242 TC 30 21.4731 82.4535 1 10 286
1913197N19087 1913 30 NI BB NOT_NAMED 1913-07-18 00:00:00 TS 21.7077 81.5473 main 0 0 _________OP___ -1 21.8000 81.2000 TC 30 21.6154 81.8946 1 14 286
1913197N19087 1913 30 NI BB NOT_NAMED 1913-07-18 03:00:00 TS 21.9390 80.7126 main 0 0 _________PO___ -1 22.0780 80.2253 TC 30 21.8000 81.2000 1 18 287
1913197N19087 1913 30 NI BB NOT_NAMED 1913-07-18 06:00:00 TS 22.2272 79.6991 main 0 0 _________OP___ -1 22.4000 79.1000 TC 30 22.0543 80.2982 1 20 287
1913197N19087 1913 30 NI BB NOT_NAMED 1913-07-18 09:00:00 TS 22.5206 78.6535 main 0 0 _________PP___ -1 22.6918 78.0494 TC 30 22.3494 79.2577 1 21 287
1913197N19087 1913 30 NI AS NOT_NAMED 1913-07-18 12:00:00 TS 22.8347 77.5691 main 0 0 _________OP___ -1 23.0000 77.0000 TC 30 22.6694 78.1381 1 21 288
1913197N19087 1913 30 NI AS NOT_NAMED 1913-07-18 15:00:00 TS 23.1746 76.4786 main 0 0 _________PO___ -1 23.3492 75.9572 TC 30 23.0000 77.0000 1 21 289
1913197N19087 1913 30 NI AS NOT_NAMED 1913-07-18 18:00:00 TS 23.5323 75.3648 main 0 0 _________OP___ -1 23.7000 74.9000 TC 30 23.3646 75.8297 1 22 289
1913197N19087 1913 30 NI AS NOT_NAMED 1913-07-18 21:00:00 TS 23.8873 74.1851 main 0 0 _________PP___ -1 24.0461 73.7032 TC 30 23.7286 74.6670 1 21 288
1913197N19087 1913 30 NI AS NOT_NAMED 1913-07-19 00:00:00 TS 24.1764 73.1476 main 0 0 _________OP___ -1 24.3000 72.7000 TC 30 24.0527 73.5953 1 16 286
1913197N19087 1913 30 NI AS NOT_NAMED 1913-07-19 03:00:00 TS 24.3430 72.4508 main 0 0 _________PO___ -1 24.3860 72.2016 TC 30 24.3000 72.7000 1 11 282
1913197N19087 1913 30 NI AS NOT_NAMED 1913-07-19 06:00:00 TS 24.4062 71.9823 main 0 0 _________OP___ -1 24.4000 71.9000 TC 30 24.4125 72.0646 1 9 277
1913197N19087 1913 30 NI AS NOT_NAMED 1913-07-19 09:00:00 TS 24.4487 71.5244 main 0 0 _________PP___ -1 24.4426 71.4349 TC 30 24.4549 71.6138 1 8 276
1913197N19087 1913 30 NI AS NOT_NAMED 1913-07-19 12:00:00 TS 24.4851 71.1406 main 0 0 _________OP___ -1 24.5000 71.0000 TC 30 24.4701 71.2813 1 6 279
1913197N19087 1913 30 NI AS NOT_NAMED 1913-07-19 15:00:00 TS 24.5424 70.8387 main 0 0 _________PO___ -1 24.5848 70.6774 TC 30 24.5000 71.0000 1 6 285
1913197N19087 1913 30 NI AS NOT_NAMED 1913-07-19 18:00:00 TS 24.6353 70.5258 main 0 0 _________OP___ -1 24.7000 70.4000 TC 30 24.5705 70.6515 1 6 290
1913197N19087 1913 30 NI AS NOT_NAMED 1913-07-19 21:00:00 TS 24.7435 70.2159 main 0 0 _________PP___ -1 24.8200 70.0924 TC 30 24.6670 70.3394 1 6 296
1913197N19087 1913 30 NI AS NOT_NAMED 1913-07-20 00:00:00 TS 24.9025 69.9288 main 0 0 _________OP___ -1 25.0000 69.8000 TC 30 24.8050 70.0576 1 6 308
1913197N19087 1913 30 NI AS NOT_NAMED 1913-07-20 03:00:00 TS 25.1350 69.6675 main 0 0 _________PO___ -1 25.2700 69.5350 TC 30 25.0000 69.8000 1 7 318
1913197N19087 1913 30 NI AS NOT_NAMED 1913-07-20 06:00:00 TS 25.4277 69.4088 main 0 0 _________OP___ -1 25.6000 69.3000 TC 30 25.2553 69.5176 1 8 324
1913197N19087 1913 30 NI AS NOT_NAMED 1913-07-20 09:00:00 TS 25.7513 69.1656 main 0 0 _________PP___ -1 25.9350 69.0701 TC 30 25.5676 69.2611 1 8 330
1913197N19087 1913 30 NI AS NOT_NAMED 1913-07-20 12:00:00 TS 26.1105 68.9745 main 0 0 _________OP___ -1 26.3000 68.9000 TC 30 25.9210 69.0489 1 8 340
1913197N19087 1913 30 NI AS NOT_NAMED 1913-07-20 15:00:00 TS 26.4962 68.8562 main 0 0 _________PO___ -1 26.6925 68.8124 TC 30 26.3000 68.9000 1 8 349
1913197N19087 1913 30 NI AS NOT_NAMED 1913-07-20 18:00:00 TS 26.8664 68.8154 main 0 0 _________OP___ -1 27.1000 68.8000 TC 30 26.6912 68.8270 1 8 357
1913197N19087 1913 30 NI AS NOT_NAMED 1913-07-20 21:00:00 TS 27.2550 68.8247 main 0 0 _________PP___ -1 27.5025 68.8374 TC 30 27.0899 68.8162 1 8 3
1913197N19087 1913 30 NI AS NOT_NAMED 1913-07-21 00:00:00 TS 27.6291 68.8650 main 0 0 _________OP___ -1 27.9000 68.9000 TC 30 27.4937 68.8475 1 7 6
1913197N19087 1913 30 NI AS NOT_NAMED 1913-07-21 03:00:00 NR 27.9000 68.9000 main 0 __________O___ -1 TC 27.9000 68.9000 1 5 9

About IBTrACS Database

This database is a web-friendly format of International Best Track Archive for Climate Stewardship (IBTrACS), a global best track data archive curated by NOAA dating back to 1842.

Updated: 2021-12-06